createdAt,value
2023-01-19T00:01:00.896Z,93872.63
2023-01-19T00:04:04.414Z,93919.34
2023-01-19T00:07:10.710Z,93825.66
2023-01-19T00:10:17.345Z,93880.16
2023-01-19T00:13:23.257Z,93873.50
2023-01-19T00:16:31.355Z,93893.81
2023-01-19T00:19:34.911Z,93916.25
2023-01-19T00:22:54.083Z,93882.06
2023-01-19T00:25:59.779Z,93924.22
2023-01-19T00:29:10.528Z,93942.09
2023-01-19T00:32:14.180Z,93943.66
2023-01-19T00:35:20.168Z,93902.38
2023-01-19T00:38:24.673Z,93926.91
2023-01-19T00:41:43.174Z,93898.81
2023-01-19T00:44:49.155Z,93883.38
2023-01-19T00:47:59.309Z,93920.56
2023-01-19T00:51:02.881Z,93842.84
2023-01-19T00:54:10.371Z,93923.78
2023-01-19T00:57:16.394Z,93923.78
2023-01-19T01:00:22.407Z,93872.19
2023-01-19T01:03:28.896Z,93889.25
2023-01-19T01:06:41.165Z,93879.59
2023-01-19T01:09:48.333Z,93839.09
2023-01-19T01:12:57.329Z,93855.38
2023-01-19T01:16:04.222Z,93836.31
2023-01-19T01:19:09.980Z,93845.41
2023-01-19T01:22:13.472Z,93867.16
2023-01-19T01:25:17.901Z,93813.44
2023-01-19T01:28:20.971Z,93838.09
2023-01-19T01:31:30.829Z,93848.06
2023-01-19T01:34:34.319Z,93830.88
2023-01-19T01:37:37.599Z,93855.50
2023-01-19T01:40:42.229Z,93854.28
2023-01-19T01:43:51.084Z,93865.84
2023-01-19T01:47:06.076Z,93862.94
2023-01-19T01:50:19.453Z,93881.06
2023-01-19T01:53:22.668Z,93870.94
2023-01-19T01:56:32.202Z,93887.16
2023-01-19T01:59:41.365Z,93890.59
2023-01-19T02:02:52.556Z,93824.88
2023-01-19T02:06:01.577Z,93884.03
2023-01-19T02:09:25.891Z,93832.31
2023-01-19T02:12:47.800Z,93853.75
2023-01-19T02:15:54.795Z,93877.91
2023-01-19T02:19:01.341Z,93868.03
2023-01-19T02:22:12.609Z,93873.72
2023-01-19T02:25:19.392Z,93857.72
2023-01-19T02:28:23.002Z,93856.94
2023-01-19T02:31:30.024Z,93822.78
2023-01-19T02:34:35.301Z,93838.09
2023-01-19T02:37:44.874Z,93839.75
2023-01-19T02:40:50.715Z,93855.84
2023-01-19T02:43:55.314Z,93858.72
2023-01-19T02:46:58.863Z,93837.22
2023-01-19T02:50:02.693Z,93838.88
2023-01-19T02:53:21.112Z,93863.81
2023-01-19T02:56:54.900Z,93870.25
2023-01-19T03:00:22.562Z,93868.38
2023-01-19T03:03:32.573Z,93851.06
2023-01-19T03:06:48.146Z,93822.78
2023-01-19T03:10:00.652Z,93838.88
2023-01-19T03:13:12.695Z,93845.84
2023-01-19T03:16:23.179Z,93800.56
2023-01-19T03:19:30.102Z,93818.88
2023-01-19T03:22:34.222Z,93786.84
2023-01-19T03:25:42.310Z,93815.66
2023-01-19T03:28:49.632Z,93828.31
2023-01-19T03:31:58.119Z,93842.75
2023-01-19T03:35:03.958Z,93821.22
2023-01-19T03:38:15.572Z,93822.66
2023-01-19T03:41:22.695Z,93825.22
2023-01-19T03:44:30.753Z,93807.00
2023-01-19T03:47:35.638Z,93801.69
2023-01-19T03:50:39.386Z,93826.75
2023-01-19T03:53:43.205Z,93767.16
2023-01-19T03:56:47.641Z,93822.22
2023-01-19T03:59:53.466Z,93819.09
2023-01-19T04:02:57.302Z,93807.00
2023-01-19T04:06:00.384Z,93822.78
2023-01-19T04:09:03.470Z,93806.81
2023-01-19T04:12:09.239Z,93859.84
2023-01-19T04:15:14.391Z,93837.41
2023-01-19T04:18:18.127Z,93841.19
2023-01-19T04:21:21.623Z,93831.88
2023-01-19T04:24:27.217Z,93854.84
2023-01-19T04:27:37.291Z,93843.41
2023-01-19T04:30:44.750Z,93858.28
2023-01-19T04:33:51.227Z,93833.97
2023-01-19T04:36:56.069Z,93837.88
2023-01-19T04:39:59.276Z,93872.28
2023-01-19T04:43:02.999Z,93852.28
2023-01-19T04:46:08.931Z,93878.06
2023-01-19T04:49:12.527Z,93858.09
2023-01-19T04:52:15.934Z,93883.72
2023-01-19T04:55:21.802Z,93874.63
2023-01-19T04:58:25.190Z,93876.84
2023-01-19T05:01:33.772Z,93882.94
2023-01-19T05:04:37.166Z,93886.03
2023-01-19T05:07:41.638Z,93865.59
2023-01-19T05:10:44.711Z,93880.72
2023-01-19T05:13:50.994Z,93889.25
2023-01-19T05:17:03.624Z,93860.50
2023-01-19T05:20:15.006Z,93920.91
2023-01-19T05:23:22.216Z,93922.47
2023-01-19T05:26:25.449Z,93932.00
2023-01-19T05:29:35.930Z,93945.31
2023-01-19T05:32:40.958Z,93879.47
2023-01-19T05:35:44.659Z,93926.69
2023-01-19T05:38:50.092Z,93950.66
2023-01-19T05:41:53.180Z,93944.56
2023-01-19T05:44:59.143Z,93934.97
2023-01-19T05:48:08.197Z,93915.50
2023-01-19T05:51:15.607Z,93954.75
2023-01-19T05:54:18.848Z,93950.22
2023-01-19T05:57:22.550Z,93953.66
2023-01-19T06:00:27.681Z,93952.53
2023-01-19T06:03:32.421Z,93933.97
2023-01-19T06:06:35.694Z,93977.81
2023-01-19T06:09:40.272Z,93978.06
2023-01-19T06:12:45.762Z,93963.41
2023-01-19T06:15:48.821Z,93965.50
2023-01-19T06:18:54.302Z,93967.41
2023-01-19T06:21:59.780Z,93985.72
2023-01-19T06:25:04.481Z,93969.75
2023-01-19T06:28:15.215Z,93974.81
2023-01-19T06:31:18.346Z,93933.81
2023-01-19T06:34:27.163Z,93966.75
2023-01-19T06:37:31.491Z,93972.84
2023-01-19T06:40:34.733Z,93935.97
2023-01-19T06:43:38.082Z,93984.28
2023-01-19T06:46:42.306Z,93940.06
2023-01-19T06:49:49.324Z,93987.06
2023-01-19T06:52:52.883Z,93970.72
2023-01-19T06:56:04.155Z,93987.94
2023-01-19T06:59:08.643Z,94017.63
2023-01-19T07:02:27.531Z,94018.41
2023-01-19T07:05:32.895Z,94036.66
2023-01-19T07:08:37.029Z,93992.09
2023-01-19T07:11:42.459Z,93961.19
2023-01-19T07:14:49.554Z,94023.97
2023-01-19T07:17:58.585Z,94006.22
2023-01-19T07:21:03.181Z,93955.84
2023-01-19T07:24:06.887Z,93951.78
2023-01-19T07:27:11.750Z,94011.66
2023-01-19T07:30:16.225Z,93986.88
2023-01-19T07:33:19.446Z,94018.53
2023-01-19T07:36:23.990Z,93986.31
2023-01-19T07:39:27.210Z,93994.19
2023-01-19T07:42:30.262Z,93982.06
2023-01-19T07:45:33.289Z,93996.41
2023-01-19T07:48:36.907Z,93950.00
2023-01-19T07:51:41.655Z,93982.19
2023-01-19T07:54:44.881Z,94014.41
2023-01-19T07:57:51.101Z,93938.66
2023-01-19T08:00:54.387Z,93961.44
2023-01-19T08:03:57.596Z,94003.97
2023-01-19T08:07:04.118Z,93960.88
2023-01-19T08:10:08.333Z,93994.06
2023-01-19T08:13:14.645Z,93855.84
2023-01-19T08:16:18.927Z,93897.59
2023-01-19T08:19:22.322Z,93957.53
2023-01-19T08:22:29.750Z,93971.31
2023-01-19T08:25:37.240Z,93963.19
2023-01-19T08:28:40.383Z,93977.75
2023-01-19T08:31:43.940Z,93996.41
2023-01-19T08:34:49.666Z,94000.50
2023-01-19T08:37:54.217Z,93993.72
2023-01-19T08:40:57.298Z,94001.22
2023-01-19T08:44:01.921Z,93977.97
2023-01-19T08:47:05.134Z,94001.53
2023-01-19T08:50:10.547Z,93999.75
2023-01-19T08:53:15.050Z,93983.53
2023-01-19T08:56:20.520Z,93967.31
2023-01-19T08:59:24.927Z,93962.22
2023-01-19T09:02:28.130Z,93733.00
2023-01-19T09:05:33.227Z,93935.00
2023-01-19T09:08:38.433Z,93924.88
2023-01-19T09:11:44.993Z,93914.00
2023-01-19T09:14:48.280Z,93951.94
2023-01-19T09:17:53.506Z,93846.19
2023-01-19T09:20:58.881Z,93907.88
2023-01-19T09:24:08.428Z,93878.88
2023-01-19T09:27:11.638Z,93759.84
2023-01-19T09:30:15.269Z,93963.28
2023-01-19T09:33:24.058Z,93891.97
2023-01-19T09:36:27.163Z,93913.75
2023-01-19T09:39:34.404Z,93920.00
2023-01-19T09:42:43.863Z,93944.09
2023-01-19T09:45:55.043Z,93921.22
2023-01-19T09:49:01.558Z,93894.19
2023-01-19T09:52:04.980Z,93943.19
2023-01-19T09:55:22.078Z,93889.47
2023-01-19T09:58:25.384Z,93893.66
2023-01-19T10:01:42.156Z,93933.19
2023-01-19T10:04:57.968Z,93948.50
2023-01-19T10:08:17.931Z,93941.53
2023-01-19T10:11:42.062Z,93877.78
2023-01-19T10:15:03.732Z,93914.88
2023-01-19T10:18:15.967Z,93920.44
2023-01-19T10:21:24.661Z,93864.25
2023-01-19T10:24:34.550Z,93896.19
2023-01-19T10:27:39.587Z,93853.56
2023-01-19T10:30:45.417Z,93887.84
2023-01-19T10:33:50.154Z,93880.53
2023-01-19T10:37:02.671Z,93880.06
2023-01-19T10:40:21.883Z,93876.88
2023-01-19T10:43:42.802Z,93677.13
2023-01-19T10:46:48.171Z,93867.13
2023-01-19T10:49:52.332Z,93766.19
2023-01-19T10:52:57.873Z,93589.59
2023-01-19T10:56:17.685Z,93804.81
2023-01-19T10:59:37.306Z,93850.94
2023-01-19T11:02:51.420Z,93881.88
2023-01-19T11:05:54.551Z,93887.44
2023-01-19T11:09:15.763Z,93836.72
2023-01-19T11:12:21.465Z,93810.53
2023-01-19T11:15:32.430Z,93826.84
2023-01-19T11:18:38.130Z,93839.91
2023-01-19T11:21:41.285Z,93868.34
2023-01-19T11:24:45.864Z,93804.59
2023-01-19T11:27:52.763Z,93845.94
2023-01-19T11:30:59.591Z,93844.72
2023-01-19T11:34:04.953Z,93816.53
2023-01-19T11:37:27.530Z,93835.03
2023-01-19T11:40:30.828Z,93805.78
2023-01-19T11:43:48.356Z,93825.31
2023-01-19T11:46:56.941Z,93822.78
2023-01-19T11:50:02.808Z,93863.28
2023-01-19T11:53:08.894Z,93822.56
2023-01-19T11:56:16.604Z,93833.53
2023-01-19T11:59:20.749Z,93857.28
2023-01-19T12:02:29.986Z,93705.09
2023-01-19T12:05:36.027Z,93826.75
2023-01-19T12:08:48.336Z,93864.25
2023-01-19T12:11:58.751Z,93757.75
2023-01-19T12:15:07.577Z,93822.44
2023-01-19T12:18:20.620Z,93826.97
2023-01-19T12:21:23.747Z,93840.63
2023-01-19T12:24:33.432Z,93809.31
2023-01-19T12:27:41.147Z,93840.53
2023-01-19T12:30:55.065Z,93830.34
2023-01-19T12:34:32.479Z,93826.78
2023-01-19T12:37:42.412Z,93811.69
2023-01-19T12:40:45.640Z,93831.88
2023-01-19T12:43:49.541Z,93790.13
2023-01-19T12:46:57.530Z,93823.00
2023-01-19T12:50:17.115Z,93830.44
2023-01-19T12:53:22.700Z,93818.91
2023-01-19T12:56:36.510Z,93838.72
2023-01-19T12:59:40.860Z,93784.94
2023-01-19T13:02:46.558Z,93851.94
2023-01-19T13:05:57.216Z,93868.28
2023-01-19T13:09:03.155Z,93852.97
2023-01-19T13:12:27.649Z,93888.34
2023-01-19T13:15:36.601Z,93901.03
2023-01-19T13:18:43.957Z,93892.25
2023-01-19T13:21:50.212Z,93904.22
2023-01-19T13:25:09.779Z,93900.44
2023-01-19T13:28:17.311Z,93898.66
2023-01-19T13:31:23.025Z,93864.25
2023-01-19T13:34:28.661Z,93899.44
2023-01-19T13:37:39.945Z,93829.56
2023-01-19T13:40:46.071Z,93891.88
2023-01-19T13:43:50.868Z,93753.53
2023-01-19T13:46:56.556Z,93846.47
2023-01-19T13:50:02.231Z,93837.31
2023-01-19T13:53:19.318Z,93869.69
2023-01-19T13:56:25.392Z,93839.84
2023-01-19T13:59:29.673Z,93867.34
2023-01-19T14:02:32.908Z,93874.13
2023-01-19T14:05:37.799Z,93873.38
2023-01-19T14:08:42.450Z,93873.03
2023-01-19T14:11:47.049Z,93882.91
2023-01-19T14:14:51.666Z,93876.91
2023-01-19T14:18:11.177Z,93850.16
2023-01-19T14:21:17.620Z,93841.97
2023-01-19T14:24:22.357Z,93858.72
2023-01-19T14:27:27.251Z,93860.81
2023-01-19T14:30:35.809Z,93841.16
2023-01-19T14:33:46.145Z,93831.63
2023-01-19T14:36:52.844Z,93811.78
2023-01-19T14:40:05.761Z,93865.56
2023-01-19T14:43:15.913Z,93836.50
2023-01-19T14:46:20.071Z,93872.22
2023-01-19T14:49:29.642Z,93881.91
2023-01-19T14:52:38.054Z,93867.78
2023-01-19T14:55:52.206Z,93890.56
2023-01-19T14:58:56.757Z,93878.09
2023-01-19T15:02:05.245Z,93903.66
2023-01-19T15:05:09.985Z,93897.22
2023-01-19T15:08:16.660Z,93859.59
2023-01-19T15:11:24.563Z,93863.13
2023-01-19T15:14:27.985Z,93874.56
2023-01-19T15:17:33.886Z,93920.44
2023-01-19T15:20:37.000Z,93913.09
2023-01-19T15:23:42.953Z,93912.22
2023-01-19T15:26:50.329Z,93939.22
2023-01-19T15:29:54.724Z,93971.53
2023-01-19T15:33:03.524Z,93932.78
2023-01-19T15:36:06.927Z,93928.88
2023-01-19T15:39:12.306Z,93928.66
2023-01-19T15:42:17.001Z,93928.66
2023-01-19T15:45:40.564Z,93956.75
2023-01-19T15:48:43.718Z,93971.31
2023-01-19T15:51:47.241Z,93969.31
2023-01-19T15:54:50.309Z,93975.78
2023-01-19T15:57:58.574Z,93994.34
2023-01-19T16:01:01.709Z,93997.34
2023-01-19T16:04:09.071Z,93969.22
2023-01-19T16:07:13.772Z,93999.28
2023-01-19T16:10:21.217Z,94008.06
2023-01-19T16:13:26.036Z,94043.53
2023-01-19T16:16:29.242Z,94050.66
2023-01-19T16:19:36.154Z,94016.63
2023-01-19T16:22:42.029Z,94078.16
2023-01-19T16:25:45.714Z,94131.09
2023-01-19T16:28:50.410Z,94119.81
2023-01-19T16:31:56.389Z,94144.03
2023-01-19T16:34:59.812Z,94111.44
2023-01-19T16:38:02.811Z,94120.97
2023-01-19T16:41:07.511Z,94101.53
2023-01-19T16:44:16.842Z,94065.94
2023-01-19T16:47:22.473Z,94093.34
2023-01-19T16:50:27.276Z,94097.69
2023-01-19T16:53:36.349Z,94105.56
2023-01-19T16:56:39.797Z,94106.44
2023-01-19T16:59:46.472Z,94098.94
2023-01-19T17:02:50.088Z,94126.31
2023-01-19T17:05:58.749Z,94102.81
2023-01-19T17:09:02.401Z,94122.91
2023-01-19T17:12:09.356Z,94106.22
2023-01-19T17:15:15.133Z,94073.91
2023-01-19T17:18:22.303Z,93919.88
2023-01-19T17:21:26.159Z,94029.97
2023-01-19T17:24:29.253Z,94085.91
2023-01-19T17:27:35.422Z,94096.69
2023-01-19T17:30:43.424Z,94133.69
2023-01-19T17:33:47.731Z,94112.13
2023-01-19T17:37:03.763Z,94111.78
2023-01-19T17:40:08.449Z,94068.22
2023-01-19T17:43:14.308Z,94081.03
2023-01-19T17:46:19.725Z,94081.22
2023-01-19T17:49:24.769Z,94102.13
2023-01-19T17:52:28.294Z,94107.25
2023-01-19T17:55:33.940Z,94091.66
2023-01-19T17:58:39.104Z,94077.66
2023-01-19T18:01:44.630Z,94083.63
2023-01-19T18:04:49.356Z,94066.34
2023-01-19T18:07:54.509Z,94081.75
2023-01-19T18:10:59.292Z,94111.59
2023-01-19T18:14:02.991Z,94127.44
2023-01-19T18:17:11.764Z,94134.97
2023-01-19T18:20:17.015Z,94111.75
2023-01-19T18:23:23.017Z,94138.53
2023-01-19T18:26:28.680Z,94144.69
2023-01-19T18:29:34.955Z,94135.38
2023-01-19T18:32:43.918Z,94121.47
2023-01-19T18:35:48.167Z,94144.81
2023-01-19T18:38:53.727Z,94139.28
2023-01-19T18:41:57.175Z,94139.63
2023-01-19T18:45:00.276Z,94122.69
2023-01-19T18:48:05.863Z,94105.50
2023-01-19T18:51:14.568Z,94130.50
2023-01-19T18:54:19.055Z,94126.97
2023-01-19T18:57:22.542Z,94122.59
2023-01-19T19:00:26.214Z,94111.03
2023-01-19T19:03:37.226Z,94122.84
2023-01-19T19:06:42.912Z,94095.00
2023-01-19T19:09:46.632Z,94134.63
2023-01-19T19:12:51.977Z,94102.22
2023-01-19T19:16:04.870Z,94148.72
2023-01-19T19:19:14.171Z,94140.69
2023-01-19T19:22:19.911Z,94137.69
2023-01-19T19:25:23.513Z,94150.16
2023-01-19T19:28:27.612Z,94139.47
2023-01-19T19:31:31.841Z,94141.59
2023-01-19T19:34:50.670Z,94165.97
2023-01-19T19:37:57.629Z,94162.91
2023-01-19T19:41:08.200Z,94150.75
2023-01-19T19:44:12.948Z,94113.50
2023-01-19T19:47:20.635Z,94176.69
2023-01-19T19:50:25.644Z,94169.13
2023-01-19T19:53:29.440Z,94156.25
2023-01-19T19:56:37.513Z,94165.50
2023-01-19T19:59:45.186Z,94077.69
2023-01-19T20:02:53.653Z,94173.97
2023-01-19T20:06:04.174Z,94176.19
2023-01-19T20:09:09.117Z,94155.47
2023-01-19T20:12:17.593Z,94171.63
2023-01-19T20:15:27.002Z,94155.25
2023-01-19T20:18:32.543Z,94145.69
2023-01-19T20:21:40.125Z,94002.09
2023-01-19T20:24:44.808Z,94154.22
2023-01-19T20:27:49.928Z,94140.38
2023-01-19T20:30:57.079Z,94133.47
2023-01-19T20:34:08.066Z,94152.19
2023-01-19T20:37:13.143Z,94114.78
2023-01-19T20:40:20.861Z,94139.47
2023-01-19T20:43:24.480Z,94103.59
2023-01-19T20:46:27.955Z,94103.13
2023-01-19T20:49:35.510Z,94121.03
2023-01-19T20:52:46.038Z,94147.28
2023-01-19T20:55:50.035Z,94135.25
2023-01-19T20:58:55.793Z,94113.50
2023-01-19T21:02:03.569Z,94074.13
2023-01-19T21:05:08.529Z,94109.94
2023-01-19T21:08:57.657Z,94090.50
2023-01-19T21:12:00.807Z,94105.72
2023-01-19T21:15:04.208Z,94093.81
2023-01-19T21:18:07.384Z,94098.03
2023-01-19T21:21:20.768Z,94107.94
2023-01-19T21:24:33.117Z,94101.50
2023-01-19T21:28:28.764Z,94123.94
2023-01-19T21:31:34.596Z,94137.59
2023-01-19T21:34:37.837Z,94151.25
2023-01-19T21:37:42.335Z,94148.25
2023-01-19T21:40:46.988Z,94148.13
2023-01-19T21:43:50.083Z,94142.13
2023-01-19T21:46:53.101Z,94096.97
2023-01-19T21:49:56.138Z,94126.94
2023-01-19T21:52:59.165Z,94109.03
2023-01-19T21:56:03.571Z,94096.38
2023-01-19T21:59:06.649Z,94089.50
2023-01-19T22:02:12.494Z,94086.34
2023-01-19T22:05:15.740Z,94065.81
2023-01-19T22:08:23.382Z,94064.41
2023-01-19T22:11:28.754Z,94069.72
2023-01-19T22:14:31.786Z,94084.16
2023-01-19T22:17:35.268Z,94095.28
2023-01-19T22:20:38.283Z,94114.72
2023-01-19T22:23:42.018Z,94074.34
2023-01-19T22:26:46.422Z,94079.59
2023-01-19T22:29:49.474Z,94071.28
2023-01-19T22:32:53.166Z,94046.38
2023-01-19T22:35:56.152Z,94048.94
2023-01-19T22:39:00.510Z,94059.91
2023-01-19T22:42:07.134Z,94045.38
2023-01-19T22:45:11.396Z,94030.81
2023-01-19T22:48:14.652Z,94034.28
2023-01-19T22:51:18.906Z,94037.28
2023-01-19T22:54:23.025Z,94017.69
2023-01-19T22:57:27.389Z,94038.28
2023-01-19T23:00:30.413Z,94037.94
2023-01-19T23:03:33.612Z,94038.56
2023-01-19T23:06:37.908Z,94040.94
2023-01-19T23:09:40.901Z,94044.69
2023-01-19T23:12:46.648Z,94052.88
2023-01-19T23:15:49.731Z,94049.22
2023-01-19T23:18:54.615Z,94045.78
2023-01-19T23:21:57.635Z,94028.56
2023-01-19T23:25:00.669Z,94036.91
2023-01-19T23:28:07.472Z,94064.31
2023-01-19T23:31:18.973Z,94075.31
2023-01-19T23:34:21.977Z,94098.97
2023-01-19T23:37:25.092Z,94128.28
2023-01-19T23:40:28.107Z,94130.38
2023-01-19T23:43:32.613Z,94141.94
2023-01-19T23:46:35.803Z,94147.25
2023-01-19T23:49:40.231Z,94154.03
2023-01-19T23:52:43.211Z,94138.75
2023-01-19T23:55:46.166Z,94145.25
2023-01-19T23:58:55.502Z,94132.72
